CheckWX is a tool to help pilots better visualize weather data.  It is not intended as a substitute for an official pre-flight weather briefing.

19:44:01 UTC

DTMB METAR
Monastir Habib Bourguiba International Airport
Monastir, Tunisia
Current

44 mins ago

DTMB 261900Z 27015KT 9999 FEW030 SCT046 19/11 Q1008
Observed
May-26 @ 19:00 UTC
Wind
  • 270° at 15 KTS
Visibility
10,000+ meters
Flight Rules
VFR
Cloud Levels
  • Few at 3,000' AGL
  • Scattered at 4,600' AGL
Temperature
19°C / 66°F
Dewpoint
11°C / 52°F
Humidity
60%
Altimeter
29.76" Hg
Pressure
1007.92 hPa
Previous

2 hours ago

DTMB 261800Z 27019KT 9999 FEW030 20/10 Q1007
Observed
May-26 @ 18:00 UTC
Wind
  • 270° at 19 KTS
Visibility
10,000+ meters
Flight Rules
VFR
Cloud Levels
  • Few at 3,000' AGL
Temperature
20°C / 68°F
Dewpoint
10°C / 50°F
Humidity
53%
Altimeter
29.73" Hg
Pressure
1006.92 hPa
Previous

2 hours ago

DTMB 261730Z 27016KT CAVOK 20/11 Q1006 NOSIG
Observed
May-26 @ 17:30 UTC
Wind
  • 270° at 16 KTS
Visibility
10,000+ meters
Flight Rules
VFR
Cloud Levels
  • Clear skies
Temperature
20°C / 68°F
Dewpoint
11°C / 52°F
Humidity
56%
Altimeter
29.7" Hg
Pressure
1005.92 hPa